Time;durP1;ratioP1;P1;durP2;ratioP2;P2;SDS_P1;SDS_P2;PMS_P1;PMS_P2;Temp;Humidity;BMP_temperature;BMP_pressure;BME280_temperature;BME280_humidity;BME280_pressure;Samples;Min_cycle;Max_cycle;Signal;HPM_P1;HPM_P2
2021/07/28 00:01:51;;;;;;;8.73;4.25;;;;;;;25.50;43.24;100285.19;5056824;28;20388;-22
2021/07/28 00:04:17;;;;;;;9.13;4.20;;;;;;;25.57;43.68;100299.19;5091756;28;20067;-22
2021/07/28 00:06:42;;;;;;;7.72;3.97;;;;;;;25.66;43.18;100294.59;5091230;28;20039;-22
2021/07/28 00:09:08;;;;;;;6.80;4.25;;;;;;;25.78;43.49;100301.38;5072942;28;20043;-22
2021/07/28 00:11:33;;;;;;;9.32;4.07;;;;;;;25.94;43.01;100310.00;5091698;28;20032;-22
2021/07/28 00:14:00;;;;;;;7.65;4.45;;;;;;;25.80;42.95;100296.41;5091629;28;20047;-22
2021/07/28 00:16:25;;;;;;;7.85;4.40;;;;;;;25.55;44.20;100286.97;5091566;28;20725;-23
2021/07/28 00:19:06;;;;;;;9.88;4.55;;;;;;;25.69;43.59;100314.22;5091447;28;20031;-22
2021/07/28 00:24:15;;;;;;;14.98;5.43;;;;;;;25.34;44.78;100309.34;5091172;28;20103;-23
2021/07/28 00:26:41;;;;;;;10.82;5.50;;;;;;;24.99;45.45;100302.84;5090999;28;20032;-22
2021/07/28 00:29:06;;;;;;;10.10;5.38;;;;;;;25.03;45.15;100310.09;5090737;28;20048;-22
2021/07/28 00:31:32;;;;;;;8.25;5.72;;;;;;;24.77;45.76;100306.34;5091042;28;20028;-22
2021/07/28 00:33:57;;;;;;;6.88;5.00;;;;;;;24.76;45.80;100305.53;5091054;28;20408;-22
2021/07/28 00:36:23;;;;;;;8.13;5.32;;;;;;;25.01;45.21;100297.88;5091261;28;20039;-22
2021/07/28 00:38:48;;;;;;;8.05;5.55;;;;;;;25.08;44.94;100308.34;5091128;28;20028;-22
2021/07/28 00:41:14;;;;;;;9.07;5.38;;;;;;;25.20;44.55;100303.94;5072552;28;20441;-22
2021/07/28 00:43:39;;;;;;;7.60;5.57;;;;;;;25.23;43.99;100297.06;5072791;28;20032;-22
2021/07/28 00:46:05;;;;;;;11.85;5.57;;;;;;;25.45;44.00;100299.78;5091002;28;20028;-22
2021/07/28 00:48:30;;;;;;;11.35;6.10;;;;;;;25.63;43.67;100305.34;5090404;28;20027;-22
2021/07/28 00:50:56;;;;;;;13.85;6.93;;;;;;;25.47;43.51;100294.00;5090712;28;20036;-22
2021/07/28 00:53:21;;;;;;;10.52;6.40;;;;;;;25.59;43.29;100299.69;5090429;28;20043;-22
2021/07/28 00:55:51;;;;;;;13.18;7.45;;;;;;;25.56;43.57;100289.41;5072432;28;20028;-22
2021/07/28 00:58:17;;;;;;;12.35;7.10;;;;;;;25.42;43.37;100296.88;5090570;28;20024;-22
2021/07/28 01:00:42;;;;;;;26.75;8.40;;;;;;;25.57;43.83;100307.38;5090576;28;20115;-22
2021/07/28 01:03:09;;;;;;;13.82;8.45;;;;;;;25.48;43.95;100292.91;5089985;28;20411;-22
2021/07/28 01:05:34;;;;;;;19.45;11.50;;;;;;;25.34;43.96;100286.72;5072290;28;20028;-22
2021/07/28 01:08:00;;;;;;;18.80;10.95;;;;;;;24.85;45.13;100284.59;5072247;28;20461;-22
2021/07/28 01:10:25;;;;;;;21.17;11.52;;;;;;;24.34;46.90;100287.66;5089655;28;20024;-22
2021/07/28 01:12:54;;;;;;;19.50;10.95;;;;;;;24.51;46.89;100287.03;5089774;28;20059;-22
2021/07/28 01:18:12;;;;;;;18.83;11.90;;;;;;;25.10;44.36;100266.00;5090350;28;20028;-22
2021/07/28 01:20:41;;;;;;;20.20;12.70;;;;;;;25.22;44.56;100301.75;5089909;28;20525;-22
2021/07/28 01:23:12;;;;;;;25.48;15.02;;;;;;;25.39;43.69;100298.28;5090034;28;20487;-23
2021/07/28 01:25:38;;;;;;;30.33;16.95;;;;;;;25.39;44.02;100262.81;5089977;28;20032;-22
2021/07/28 01:28:04;;;;;;;35.97;16.38;;;;;;;25.55;43.64;100290.50;5054832;28;20063;-22
2021/07/28 01:30:30;;;;;;;27.45;14.55;;;;;;;25.27;43.95;100281.69;5055127;28;20123;-22
2021/07/28 01:32:55;;;;;;;33.33;14.77;;;;;;;25.19;44.37;100291.44;5089746;28;20046;-22
2021/07/28 01:35:21;;;;;;;26.15;13.75;;;;;;;25.25;44.17;100289.38;5071521;28;20028;-22
2021/07/28 01:37:46;;;;;;;27.58;13.60;;;;;;;25.41;43.74;100293.31;5071679;28;20436;-22
2021/07/28 01:40:13;;;;;;;20.98;12.10;;;;;;;24.65;46.22;100277.69;5089625;28;20480;-22
2021/07/28 01:42:42;;;;;;;21.92;10.48;;;;;;;24.30;47.42;100284.72;5071253;28;20480;-22
2021/07/28 01:45:09;;;;;;;27.42;11.48;;;;;;;23.66;48.46;100271.03;5089481;28;20077;-22
2021/07/28 01:47:34;;;;;;;19.10;10.50;;;;;;;23.13;50.41;100293.16;5089147;28;20032;-22
2021/07/28 01:50:00;;;;;;;22.60;10.45;;;;;;;22.50;52.28;100291.66;5089460;28;20031;-22
2021/07/28 01:52:25;;;;;;;19.48;10.68;;;;;;;22.06;53.82;100290.81;5089463;28;20408;-22
2021/07/28 01:54:51;;;;;;;17.10;9.35;;;;;;;22.59;51.86;100287.16;5089713;28;20043;-22
2021/07/28 01:57:16;;;;;;;14.57;8.23;;;;;;;23.11;50.07;100298.09;5089220;28;20175;-22
2021/07/28 01:59:42;;;;;;;12.80;8.23;;;;;;;23.08;49.96;100307.66;5089581;28;20028;-22
2021/07/28 02:02:07;;;;;;;12.20;7.82;;;;;;;23.17;49.99;100316.78;5089488;28;20028;-22
2021/07/28 02:04:33;;;;;;;12.85;8.15;;;;;;;23.13;50.15;100296.72;5089350;28;20909;-22
2021/07/28 02:06:58;;;;;;;14.48;8.20;;;;;;;23.46;49.05;100302.13;5070786;28;20032;-22
2021/07/28 02:09:23;;;;;;;13.55;7.75;;;;;;;23.27;49.81;100300.28;5089162;28;20427;-22
2021/07/28 02:11:49;;;;;;;11.55;8.00;;;;;;;22.52;52.60;100305.75;5088898;28;20027;-22
2021/07/28 02:14:14;;;;;;;13.00;8.38;;;;;;;23.19;50.19;100309.13;5089069;28;20044;-22
2021/07/28 02:16:40;;;;;;;12.18;8.60;;;;;;;23.08;50.07;100290.53;5088929;28;20028;-22
2021/07/28 02:19:07;;;;;;;15.82;8.98;;;;;;;22.85;50.87;100309.34;5088522;28;20031;-22
2021/07/28 02:21:33;;;;;;;21.10;9.10;;;;;;;22.67;51.35;100302.81;5088912;28;20081;-22
2021/07/28 02:23:59;;;;;;;15.63;7.93;;;;;;;22.97;50.64;100287.16;5088676;28;20331;-23
2021/07/28 02:26:25;;;;;;;26.17;8.40;;;;;;;22.97;51.14;100289.88;5088443;28;20470;-22
2021/07/28 02:28:52;;;;;;;14.95;7.82;;;;;;;22.59;52.04;100289.88;5088509;28;20140;-22
2021/07/28 02:31:17;;;;;;;21.52;8.02;;;;;;;22.33;52.92;100290.25;5088317;28;20085;-22
2021/07/28 02:33:43;;;;;;;19.10;7.88;;;;;;;22.24;53.17;100289.25;5089020;28;20074;-22
2021/07/28 02:36:08;;;;;;;21.35;9.35;;;;;;;22.59;52.76;100300.75;5088618;28;20483;-22
2021/07/28 02:38:34;;;;;;;14.73;8.30;;;;;;;23.18;50.28;100299.31;5088438;28;20104;-22
2021/07/28 02:40:59;;;;;;;16.77;8.32;;;;;;;23.65;49.00;100302.06;5088288;28;20039;-22
2021/07/28 02:43:25;;;;;;;12.98;8.45;;;;;;;23.74;48.45;100283.94;5088648;28;20073;-22
2021/07/28 02:45:50;;;;;;;17.25;7.95;;;;;;;24.10;48.17;100301.50;5088565;28;20785;-22
2021/07/28 02:48:16;;;;;;;15.85;8.20;;;;;;;23.55;49.53;100303.03;5088558;28;20040;-22
2021/07/28 02:50:41;;;;;;;18.98;7.90;;;;;;;22.74;51.67;100281.53;5088326;28;20035;-22
2021/07/28 02:53:07;;;;;;;25.33;9.25;;;;;;;22.88;50.79;100292.44;5069947;28;20039;-22
2021/07/28 02:55:32;;;;;;;14.05;7.38;;;;;;;22.96;50.66;100304.56;5087876;28;20028;-22
2021/07/28 02:57:58;;;;;;;10.70;7.20;;;;;;;23.35;49.35;100300.69;5088279;28;20028;-22
2021/07/28 03:00:23;;;;;;;16.08;7.07;;;;;;;23.17;50.56;100305.91;5088115;28;20488;-22
2021/07/28 03:02:48;;;;;;;17.73;8.10;;;;;;;22.70;56.26;100307.69;5088276;28;20040;-22
2021/07/28 03:05:14;;;;;;;21.60;8.18;;;;;;;23.32;53.56;100312.19;5088191;28;20024;-22
2021/07/28 03:07:40;;;;;;;23.85;8.82;;;;;;;23.24;53.98;100284.53;5087886;28;20472;-22
2021/07/28 03:10:06;;;;;;;16.77;8.43;;;;;;;23.47;53.75;100298.28;5087917;28;20407;-22
2021/07/28 03:12:31;;;;;;;18.95;8.45;;;;;;;23.69;52.94;100294.09;5069550;28;20036;-22
2021/07/28 03:14:56;;;;;;;19.00;8.80;;;;;;;23.78;51.01;100279.53;5069758;28;20046;-22
2021/07/28 03:17:22;;;;;;;16.23;8.63;;;;;;;23.71;51.42;100276.34;5088331;28;20035;-22
2021/07/28 03:19:48;;;;;;;22.38;8.75;;;;;;;23.51;51.86;100293.88;5088175;28;20784;-23
2021/07/28 03:22:13;;;;;;;18.77;9.45;;;;;;;23.73;50.48;100286.94;5087679;28;20541;-22
2021/07/28 03:24:39;;;;;;;24.90;10.75;;;;;;;24.00;49.78;100311.47;5086732;28;20035;-22
2021/07/28 03:27:04;;;;;;;16.38;9.90;;;;;;;24.06;49.85;100299.38;5085749;28;20032;-22
2021/07/28 03:29:30;;;;;;;17.02;9.13;;;;;;;24.21;49.25;100313.78;5087800;28;20051;-22
2021/07/28 03:31:56;;;;;;;18.50;9.30;;;;;;;24.17;49.64;100315.50;5087678;28;20028;-22
2021/07/28 03:34:21;;;;;;;23.10;10.07;;;;;;;24.05;49.20;100302.41;5087601;28;20510;-22
2021/07/28 03:36:47;;;;;;;19.90;9.68;;;;;;;23.84;50.02;100296.56;5088088;28;20085;-22
2021/07/28 03:39:12;;;;;;;22.48;10.20;;;;;;;24.03;49.44;100313.63;5087335;28;20024;-22
2021/07/28 03:41:38;;;;;;;19.58;9.43;;;;;;;24.15;49.01;100304.09;5087698;28;20384;-22
2021/07/28 03:44:03;;;;;;;22.17;10.15;;;;;;;24.03;49.42;100310.88;5087603;28;20043;-22
2021/07/28 03:46:29;;;;;;;22.83;10.05;;;;;;;23.81;49.58;100299.91;5087307;28;20419;-23
2021/07/28 03:48:54;;;;;;;18.95;9.55;;;;;;;23.67;49.75;100303.38;5087424;28;20107;-22
2021/07/28 03:51:20;;;;;;;21.48;9.60;;;;;;;23.20;50.89;100299.84;5087461;28;20028;-22
2021/07/28 03:53:45;;;;;;;16.45;10.05;;;;;;;23.71;49.26;100308.22;5087688;28;20028;-22
2021/07/28 03:56:11;;;;;;;18.45;10.07;;;;;;;23.69;49.43;100321.34;5069691;28;20043;-22
2021/07/28 03:58:36;;;;;;;20.45;9.48;;;;;;;23.71;49.47;100310.94;5087305;28;20036;-22
2021/07/28 04:01:02;;;;;;;20.02;9.07;;;;;;;23.69;50.09;100315.88;5087376;28;20028;-22
2021/07/28 04:03:27;;;;;;;24.15;8.85;;;;;;;23.74;49.53;100319.34;5087487;28;20479;-22
2021/07/28 04:05:54;;;;;;;15.95;8.70;;;;;;;23.97;47.98;100328.44;5087385;28;20028;-22
2021/07/28 04:08:19;;;;;;;15.82;9.13;;;;;;;24.01;49.21;100326.72;5069027;28;20028;-22
2021/07/28 04:10:46;;;;;;;12.15;8.75;;;;;;;24.19;48.28;100319.56;5087407;28;20027;-22
2021/07/28 04:13:11;;;;;;;16.52;8.38;;;;;;;24.20;48.03;100321.16;5086899;28;20035;-22
2021/07/28 04:15:37;;;;;;;14.00;8.93;;;;;;;24.14;48.15;100321.59;5087189;28;20122;-22
2021/07/28 04:18:02;;;;;;;19.88;9.57;;;;;;;24.41;47.51;100305.19;5087243;28;20035;-22
2021/07/28 04:20:28;;;;;;;26.48;10.80;;;;;;;24.44;48.23;100328.31;5087280;28;20039;-22
2021/07/28 04:22:53;;;;;;;24.80;12.30;;;;;;;24.14;48.20;100318.84;5087109;28;20035;-22
2021/07/28 04:25:19;;;;;;;23.45;13.00;;;;;;;24.21;48.93;100330.97;5086893;28;20028;-22
2021/07/28 04:27:44;;;;;;;19.50;11.73;;;;;;;24.14;49.29;100324.31;5086907;28;20330;-22
2021/07/28 04:30:10;;;;;;;20.20;12.05;;;;;;;24.24;49.02;100332.28;5087427;28;20028;-22
2021/07/28 04:32:36;;;;;;;28.13;12.43;;;;;;;24.33;49.29;100335.09;5087261;28;20101;-22
2021/07/28 04:35:01;;;;;;;26.60;12.82;;;;;;;24.34;49.01;100326.63;5086822;28;20035;-22
2021/07/28 04:37:27;;;;;;;25.85;14.30;;;;;;;24.01;49.83;100326.72;5086911;28;20032;-22
2021/07/28 04:39:52;;;;;;;23.35;15.80;;;;;;;24.13;49.37;100334.41;5087021;28;20127;-23
2021/07/28 04:42:18;;;;;;;109.82;68.30;;;;;;;24.23;49.46;100331.47;5086896;28;20032;-22
2021/07/28 04:44:43;;;;;;;85.00;52.78;;;;;;;23.89;50.02;100315.53;5086842;28;20027;-22
2021/07/28 04:47:09;;;;;;;73.05;45.03;;;;;;;24.06;49.41;100329.34;5088952;28;20036;-22
2021/07/28 04:49:34;;;;;;;39.10;26.35;;;;;;;24.39;48.47;100306.59;5090638;28;20032;-23
2021/07/28 04:52:00;;;;;;;41.70;25.13;;;;;;;24.62;48.56;100321.94;5090336;28;20072;-22
2021/07/28 04:54:25;;;;;;;32.65;19.85;;;;;;;24.86;47.29;100329.84;5090388;28;20499;-22
2021/07/28 04:56:51;;;;;;;29.25;16.25;;;;;;;24.86;46.99;100309.94;5090815;28;20032;-22
2021/07/28 04:59:16;;;;;;;26.83;15.40;;;;;;;24.25;48.51;100326.53;5071951;28;20040;-22
2021/07/28 05:01:42;;;;;;;28.15;16.95;;;;;;;24.43;48.89;100323.97;5090542;28;20035;-22
2021/07/28 05:04:09;;;;;;;22.92;14.68;;;;;;;24.32;48.69;100304.31;5090684;28;20024;-22
2021/07/28 05:06:35;;;;;;;26.40;17.48;;;;;;;24.63;48.17;100301.75;5090437;28;20117;-22
2021/07/28 05:09:00;;;;;;;29.63;17.38;;;;;;;25.18;46.21;100311.63;5090178;28;20032;-22
2021/07/28 05:11:25;;;;;;;25.50;14.57;;;;;;;25.25;46.49;100322.97;5090266;28;20385;-22
2021/07/28 05:13:51;;;;;;;25.42;15.77;;;;;;;25.39;46.34;100324.78;5090124;28;20040;-22
2021/07/28 05:16:16;;;;;;;25.67;14.95;;;;;;;25.18;46.75;100317.09;5090106;28;20032;-22
2021/07/28 05:18:42;;;;;;;20.88;14.10;;;;;;;25.20;46.00;100319.50;5090139;28;20090;-22
2021/07/28 05:21:07;;;;;;;19.20;13.18;;;;;;;25.40;45.36;100312.78;5089597;28;20032;-22
2021/07/28 05:23:33;;;;;;;21.40;16.15;;;;;;;25.67;45.42;100334.44;5089831;28;20028;-22
2021/07/28 05:25:59;;;;;;;22.17;16.10;;;;;;;25.81;44.68;100314.41;5089842;28;20032;-22
2021/07/28 05:28:25;;;;;;;17.65;13.63;;;;;;;25.71;45.20;100318.22;5089326;28;20055;-22
2021/07/28 05:30:51;;;;;;;16.88;12.70;;;;;;;25.94;45.16;100332.66;5089720;28;20028;-22
2021/07/28 05:33:16;;;;;;;26.77;14.18;;;;;;;25.97;44.61;100326.56;5089887;28;20530;-22
2021/07/28 05:35:47;;;;;;;19.42;11.25;;;;;;;25.86;44.70;100322.47;5089484;28;20043;-22
2021/07/28 05:38:13;;;;;;;12.93;8.40;;;;;;;25.72;45.17;100319.03;5089716;28;20028;-22
2021/07/28 05:40:38;;;;;;;11.63;8.65;;;;;;;25.66;45.36;100332.84;5089712;28;20096;-22
2021/07/28 05:43:04;;;;;;;13.55;8.88;;;;;;;25.96;44.50;100318.69;5089220;28;20031;-22
2021/07/28 05:45:29;;;;;;;15.95;8.40;;;;;;;26.51;44.85;100337.31;5089903;28;20039;-22
2021/07/28 05:47:54;;;;;;;12.93;8.25;;;;;;;26.46;44.08;100337.47;5089347;28;20039;-23
2021/07/28 05:50:20;;;;;;;14.98;8.82;;;;;;;26.10;45.05;100330.31;5071522;28;20040;-22
2021/07/28 05:52:45;;;;;;;12.95;8.30;;;;;;;26.50;43.57;100316.56;5089613;28;20774;-22
2021/07/28 05:55:11;;;;;;;9.73;7.97;;;;;;;26.59;43.85;100324.81;5089166;28;20035;-22
2021/07/28 05:57:36;;;;;;;13.68;7.35;;;;;;;26.98;43.18;100326.56;5088669;28;20024;-22
2021/07/28 06:00:07;;;;;;;12.15;8.05;;;;;;;27.33;42.81;100320.28;5088695;28;20061;-22
2021/07/28 06:02:32;;;;;;;10.48;7.07;;;;;;;26.80;43.41;100325.78;5089220;28;20090;-22
2021/07/28 06:04:57;;;;;;;9.40;7.20;;;;;;;26.86;42.92;100319.00;5088950;28;20039;-22
2021/07/28 06:07:23;;;;;;;11.85;6.88;;;;;;;26.68;42.82;100320.13;5088995;28;20032;-22
2021/07/28 06:09:49;;;;;;;9.48;6.47;;;;;;;27.05;43.02;100323.34;5089054;28;20475;-22
2021/07/28 06:12:16;;;;;;;17.17;7.25;;;;;;;27.26;42.47;100312.56;5088860;28;20031;-22
2021/07/28 06:14:43;;;;;;;13.13;7.28;;;;;;;27.53;41.16;100314.09;5088842;28;20548;-22
2021/07/28 06:17:08;;;;;;;11.75;7.43;;;;;;;27.50;42.99;100320.22;5088700;28;20115;-22
2021/07/28 06:19:34;;;;;;;12.90;7.70;;;;;;;27.55;42.76;100311.84;5088936;28;20090;-22
2021/07/28 06:21:59;;;;;;;11.65;7.60;;;;;;;27.74;41.24;100319.66;5088826;28;20032;-22
2021/07/28 06:24:25;;;;;;;11.00;7.40;;;;;;;27.98;39.56;100308.16;5088684;28;20490;-22
2021/07/28 06:26:51;;;;;;;12.98;8.05;;;;;;;27.89;40.91;100306.56;5088342;28;20047;-22
2021/07/28 06:29:16;;;;;;;15.68;7.75;;;;;;;28.24;39.31;100309.97;5088003;28;20059;-22
2021/07/28 06:31:41;;;;;;;15.07;7.18;;;;;;;27.93;39.06;100307.53;5088654;28;20035;-22
2021/07/28 06:34:07;;;;;;;11.95;6.57;;;;;;;28.03;40.45;100316.19;5088582;28;20506;-22
2021/07/28 06:36:32;;;;;;;12.52;6.47;;;;;;;28.40;38.99;100316.47;5088598;28;20097;-22
2021/07/28 06:38:58;;;;;;;13.50;6.82;;;;;;;28.50;38.00;100307.03;5088596;28;20132;-22
2021/07/28 06:41:23;;;;;;;11.02;6.40;;;;;;;28.92;36.63;100311.75;5088464;28;20035;-22
2021/07/28 06:43:49;;;;;;;17.65;6.97;;;;;;;28.82;37.97;100297.28;5088174;28;20046;-22
2021/07/28 06:46:14;;;;;;;16.67;7.20;;;;;;;28.67;38.87;100311.63;5088451;28;20032;-22
2021/07/28 06:48:39;;;;;;;13.80;7.97;;;;;;;28.37;39.28;100305.34;5087918;28;20463;-22
2021/07/28 06:51:05;;;;;;;13.95;7.68;;;;;;;28.71;38.77;100307.06;5088047;28;20024;-22
2021/07/28 06:53:30;;;;;;;12.05;6.85;;;;;;;28.75;39.98;100313.50;5088222;28;20437;-22
2021/07/28 06:55:56;;;;;;;14.70;7.93;;;;;;;28.84;39.91;100295.00;5088320;28;20036;-22
2021/07/28 06:58:21;;;;;;;19.55;7.18;;;;;;;29.38;37.97;100301.59;5088172;28;20085;-22
2021/07/28 07:00:47;;;;;;;11.38;6.80;;;;;;;29.25;37.98;100298.81;5088129;28;20506;-22
2021/07/28 07:03:12;;;;;;;12.20;7.03;;;;;;;29.18;38.96;100298.59;5087794;28;20380;-22
2021/07/28 07:05:38;;;;;;;13.68;7.38;;;;;;;28.64;39.19;100273.88;5087846;28;20071;-22
2021/07/28 07:08:03;;;;;;;12.43;6.60;;;;;;;29.13;39.16;100290.56;5087675;28;20443;-22
2021/07/28 07:10:29;;;;;;;11.27;6.65;;;;;;;28.99;38.06;100279.03;5087594;28;20069;-22
2021/07/28 07:12:54;;;;;;;10.93;6.53;;;;;;;28.96;37.58;100290.72;5070168;28;20028;-22
2021/07/28 07:15:20;;;;;;;13.18;7.35;;;;;;;29.38;37.11;100290.59;5087353;28;20082;-22
2021/07/28 07:17:45;;;;;;;12.90;7.40;;;;;;;29.67;36.42;100299.81;5087355;28;20073;-22
2021/07/28 07:20:11;;;;;;;9.30;6.93;;;;;;;29.72;37.43;100294.13;5086785;28;20043;-22
2021/07/28 07:22:37;;;;;;;13.88;6.93;;;;;;;29.84;37.07;100288.63;5086407;28;20032;-22
2021/07/28 07:25:04;;;;;;;14.85;7.00;;;;;;;29.70;35.49;100280.69;5086905;28;20036;-22
2021/07/28 07:27:29;;;;;;;10.00;6.22;;;;;;;29.78;35.82;100285.31;5087272;28;20051;-22
2021/07/28 07:29:55;;;;;;;13.38;6.30;;;;;;;30.04;35.72;100293.22;5069626;28;20484;-22
2021/07/28 07:32:23;;;;;;;10.23;6.80;;;;;;;30.27;35.35;100289.97;5087420;28;20044;-22
2021/07/28 07:34:51;;;;;;;9.90;7.00;;;;;;;30.43;36.26;100290.88;5087480;28;20028;-22
2021/07/28 07:37:17;;;;;;;13.98;6.68;;;;;;;30.61;35.26;100290.63;5087034;28;20024;-22
2021/07/28 07:39:42;;;;;;;11.38;7.18;;;;;;;30.27;34.44;100281.72;5087376;28;20024;-22
2021/07/28 07:42:08;;;;;;;11.55;7.47;;;;;;;30.60;33.96;100286.25;5087670;28;20384;-22
2021/07/28 07:44:33;;;;;;;11.10;7.03;;;;;;;30.60;34.69;100289.00;5087420;28;20549;-22
2021/07/28 07:46:58;;;;;;;9.30;7.05;;;;;;;30.66;35.17;100279.34;5087083;28;20047;-22
2021/07/28 07:49:24;;;;;;;15.48;7.53;;;;;;;30.68;34.44;100282.56;5069343;28;20028;-22
2021/07/28 07:51:49;;;;;;;12.95;7.53;;;;;;;30.68;35.45;100277.03;5087329;28;20032;-22
2021/07/28 07:54:15;;;;;;;13.63;7.38;;;;;;;30.77;35.57;100288.72;5087441;28;20461;-22
2021/07/28 07:56:40;;;;;;;10.77;6.70;;;;;;;30.73;35.19;100260.28;5087645;28;20054;-22
2021/07/28 07:59:06;;;;;;;10.05;6.78;;;;;;;30.89;35.19;100265.06;5087197;28;20028;-22
2021/07/28 08:01:31;;;;;;;12.05;6.80;;;;;;;31.13;34.50;100264.94;5087243;28;20032;-22
2021/07/28 08:03:57;;;;;;;20.00;8.77;;;;;;;31.38;32.87;100268.31;5087301;28;20089;-22
2021/07/28 08:06:22;;;;;;;13.27;7.20;;;;;;;31.47;33.27;100267.38;5087313;28;20078;-22
2021/07/28 08:08:48;;;;;;;9.88;7.25;;;;;;;31.63;33.31;100263.47;5087081;28;20480;-22
2021/07/28 08:11:13;;;;;;;12.93;7.60;;;;;;;32.03;32.73;100265.22;5087376;28;20110;-22
2021/07/28 08:13:39;;;;;;;14.18;7.60;;;;;;;31.92;33.31;100236.56;5087116;28;20475;-22
2021/07/28 08:16:12;;;;;;;11.80;7.03;;;;;;;32.37;33.77;100248.22;5087197;28;20024;-22
2021/07/28 08:18:37;;;;;;;14.27;7.15;;;;;;;32.22;32.08;100255.38;5086922;28;20399;-22
2021/07/28 08:21:04;;;;;;;11.77;8.52;;;;;;;32.73;31.63;100257.25;5089252;28;20028;-22
2021/07/28 08:23:30;;;;;;;12.50;8.00;;;;;;;32.73;31.30;100248.94;5090822;28;20123;-22
2021/07/28 08:25:55;;;;;;;14.80;8.68;;;;;;;32.22;30.49;100256.19;5090772;28;20111;-22
2021/07/28 08:28:21;;;;;;;12.15;8.25;;;;;;;32.47;29.85;100249.56;5090743;28;20548;-22
2021/07/28 08:30:46;;;;;;;16.75;8.77;;;;;;;32.90;30.70;100233.91;5090916;28;20047;-22
2021/07/28 08:33:12;;;;;;;12.98;8.13;;;;;;;32.85;28.23;100232.22;5090674;28;20040;-22
2021/07/28 08:35:37;;;;;;;14.40;8.43;;;;;;;32.76;29.78;100239.94;5090858;28;20028;-22
2021/07/28 08:38:05;;;;;;;14.55;8.18;;;;;;;32.70;31.53;100219.31;5090800;28;20496;-22
2021/07/28 08:40:30;;;;;;;14.90;8.57;;;;;;;32.72;29.94;100223.31;5090580;28;20051;-22
2021/07/28 08:42:56;;;;;;;13.38;7.93;;;;;;;32.77;30.38;100231.28;5072630;28;20028;-22
2021/07/28 08:45:21;;;;;;;10.98;7.80;;;;;;;32.89;30.56;100229.53;5072173;28;20042;-22
2021/07/28 08:47:47;;;;;;;14.65;7.82;;;;;;;33.09;30.28;100225.59;5090759;28;20052;-22
2021/07/28 08:50:13;;;;;;;11.77;7.82;;;;;;;33.57;29.39;100228.75;5090767;28;20032;-24
2021/07/28 08:52:40;;;;;;;16.13;8.68;;;;;;;33.55;29.94;100219.22;5090321;28;20050;-24
2021/07/28 08:55:06;;;;;;;13.57;8.02;;;;;;;33.79;30.31;100223.56;5090310;28;20040;-24
2021/07/28 08:57:32;;;;;;;11.98;7.15;;;;;;;34.08;28.98;100227.53;5090649;28;20027;-24
2021/07/28 08:59:58;;;;;;;12.05;7.05;;;;;;;33.85;28.10;100226.81;5090194;28;20105;-24
2021/07/28 09:02:24;;;;;;;11.55;7.43;;;;;;;33.71;27.96;100211.59;5090142;28;20047;-24
2021/07/28 09:04:49;;;;;;;11.23;8.00;;;;;;;33.72;30.17;100201.34;5090199;28;20548;-24
2021/07/28 09:07:15;;;;;;;12.68;7.78;;;;;;;34.08;28.73;100208.16;5090023;28;20031;-24
2021/07/28 09:09:48;;;;;;;12.77;9.05;;;;;;;33.80;29.37;100209.38;5090052;28;20039;-24
2021/07/28 09:12:14;;;;;;;12.80;7.88;;;;;;;33.96;30.71;100206.44;5090011;28;20024;-24
2021/07/28 09:14:54;;;;;;;11.75;8.20;;;;;;;33.93;28.46;100207.16;5055046;28;20028;-24
2021/07/28 09:17:20;;;;;;;11.48;7.82;;;;;;;33.77;29.09;100190.75;5072720;28;20024;-24
2021/07/28 09:19:48;;;;;;;10.18;7.80;;;;;;;34.30;27.31;100208.47;5089839;28;20043;-24
2021/07/28 09:22:16;;;;;;;13.43;7.97;;;;;;;34.39;27.32;100201.47;5089932;28;20028;-24
2021/07/28 09:24:43;;;;;;;;;;;;;;;34.41;28.12;100198.34;5090097;28;20051;-24
2021/07/28 09:27:08;;;;;;;14.50;7.82;;;;;;;34.46;27.53;100183.34;5071384;28;20450;-24
2021/07/28 09:29:38;;;;;;;15.77;8.85;;;;;;;34.72;26.72;100190.78;5089648;28;20059;-24
2021/07/28 09:32:08;;;;;;;17.58;8.07;;;;;;;34.65;26.77;100190.69;5088995;28;20032;-24
2021/07/28 09:34:35;;;;;;;13.00;7.95;;;;;;;35.02;26.87;100193.41;5089469;28;20028;-24
2021/07/28 09:37:10;;;;;;;16.35;7.60;;;;;;;35.26;27.74;100186.53;5089286;28;20020;-24
2021/07/28 09:39:39;;;;;;;14.00;8.98;;;;;;;34.81;26.72;100166.31;5089439;28;20039;-24
2021/07/28 09:42:10;;;;;;;11.73;8.18;;;;;;;35.27;26.55;100176.22;5089459;28;20032;-24
2021/07/28 09:44:36;;;;;;;13.07;8.55;;;;;;;34.91;27.16;100153.75;5089330;28;20032;-23
2021/07/28 09:47:09;;;;;;;13.73;8.02;;;;;;;35.09;27.21;100173.31;5089206;28;20404;-24
2021/07/28 09:49:35;;;;;;;11.85;8.85;;;;;;;34.80;27.76;100148.91;5089328;28;20519;-24
2021/07/28 09:52:27;;;;;;;11.13;7.75;;;;;;;35.39;27.73;100162.88;5089379;28;20032;-24
2021/07/28 09:54:53;;;;;;;14.98;8.18;;;;;;;35.32;26.21;100157.25;5089216;28;20507;-24
2021/07/28 09:57:26;;;;;;;12.40;8.50;;;;;;;35.52;26.80;100160.56;5089047;28;20725;-24
2021/07/28 10:00:05;;;;;;;13.60;8.95;;;;;;;35.71;26.07;100155.97;5089662;28;20832;-24
2021/07/28 10:02:32;;;;;;;13.82;8.88;;;;;;;36.06;26.93;100154.53;5072572;28;20055;-24
2021/07/28 10:04:57;;;;;;;17.23;9.02;;;;;;;36.02;25.58;100148.97;5089206;28;20035;-24
2021/07/28 10:07:23;;;;;;;13.55;9.05;;;;;;;36.08;25.42;100146.59;5070778;28;20039;-24
2021/07/28 10:09:51;;;;;;;11.13;8.60;;;;;;;36.14;25.76;100145.03;5088734;28;20028;-23
2021/07/28 10:12:17;;;;;;;11.32;7.90;;;;;;;36.30;25.60;100142.75;5070935;28;20028;-24
2021/07/28 10:14:43;;;;;;;11.98;8.15;;;;;;;36.46;25.70;100138.81;5070730;28;20097;-24
2021/07/28 10:17:10;;;;;;;13.65;8.65;;;;;;;36.82;24.50;100127.78;5054243;28;20031;-24
2021/07/28 10:19:36;;;;;;;13.45;8.90;;;;;;;36.92;24.60;100126.97;5071291;28;20539;-24
2021/07/28 10:22:02;;;;;;;10.20;7.80;;;;;;;36.72;23.34;100134.91;5070621;28;20031;-24
2021/07/28 10:24:27;;;;;;;12.20;8.73;;;;;;;36.76;25.09;100125.41;5088704;28;20028;-24
2021/07/28 10:26:53;;;;;;;11.25;7.85;;;;;;;37.08;23.93;100101.56;5088495;28;20094;-24
2021/07/28 10:29:18;;;;;;;12.35;7.95;;;;;;;37.20;24.70;100115.06;5070035;28;20060;-24
2021/07/28 10:31:48;;;;;;;11.70;7.78;;;;;;;37.24;24.30;100109.50;5089017;28;20555;-24
2021/07/28 10:34:27;;;;;;;13.68;7.78;;;;;;;37.77;23.31;100109.38;5088550;28;20020;-24
2021/07/28 10:36:54;;;;;;;13.50;8.40;;;;;;;38.18;22.41;100119.16;5088405;28;20028;-22
2021/07/28 10:39:41;;;;;;;10.95;7.93;;;;;;;38.05;21.85;100112.47;5087769;28;20403;-22
2021/07/28 10:42:19;;;;;;;12.68;8.00;;;;;;;38.31;22.28;100108.34;5088106;28;20092;-22
2021/07/28 10:44:57;;;;;;;10.85;7.90;;;;;;;38.78;19.95;100106.84;5087299;28;20498;-22
2021/07/28 10:47:42;;;;;;;13.80;8.07;;;;;;;38.54;22.40;100102.25;5088266;28;20404;-22
2021/07/28 10:50:25;;;;;;;15.20;8.52;;;;;;;38.33;24.52;100101.19;5088109;28;20028;-22
2021/07/28 10:52:51;;;;;;;13.52;7.80;;;;;;;38.28;21.71;100101.59;5088450;28;20047;-22
2021/07/28 10:55:20;;;;;;;9.60;7.90;;;;;;;37.99;23.07;100087.81;5087862;28;20480;-22
2021/07/28 10:57:52;;;;;;;14.32;7.90;;;;;;;38.11;23.72;100091.38;5087922;28;20040;-22
2021/07/28 11:00:38;;;;;;;9.45;7.22;;;;;;;37.26;24.01;100084.88;5087884;28;20039;-22
2021/07/28 11:03:06;;;;;;;;;;;;;;;37.89;23.32;100088.66;5087954;28;20066;-22
2021/07/28 11:05:35;;;;;;;13.57;7.47;;;;;;;38.56;20.68;100092.28;5087900;28;19921;-22
2021/07/28 11:08:01;;;;;;;14.60;6.97;;;;;;;39.17;19.32;100091.78;5087727;28;20024;-22
2021/07/28 11:10:26;;;;;;;13.77;6.57;;;;;;;39.71;19.58;100090.41;5087788;28;20036;-22
2021/07/28 11:12:52;;;;;;;13.60;6.87;;;;;;;40.18;18.71;100090.59;5087854;28;20035;-22
2021/07/28 11:15:18;;;;;;;12.40;7.13;;;;;;;39.58;21.27;100085.38;5087480;28;20089;-22
2021/07/28 11:17:43;;;;;;;15.33;7.30;;;;;;;38.76;19.73;100078.59;5069632;28;20032;-22
2021/07/28 11:20:10;;;;;;;12.23;6.90;;;;;;;37.84;21.76;100066.78;5087725;28;20522;-22